Time;durP1;ratioP1;P1;durP2;ratioP2;P2;SDS_P1;SDS_P2;PMS_P1;PMS_P2;Temp;Humidity;BMP_temperature;BMP_pressure;BME280_temperature;BME280_humidity;BME280_pressure;Samples;Min_cycle;Max_cycle;Signal;HPM_P1;HPM_P2
2022/10/19 00:01:18;;;;;;;0.10;0.10;;;11.20;99.90;;;;;;5148691;27;20084;-76
2022/10/19 00:03:47;;;;;;;0.10;0.10;;;11.20;99.90;;;;;;5137195;27;20047;-76
2022/10/19 00:06:29;;;;;;;0.10;0.10;;;11.30;99.90;;;;;;5135113;27;20398;-75
2022/10/19 00:08:57;;;;;;;0.10;0.10;;;11.40;99.90;;;;;;5148863;27;20035;-76
2022/10/19 00:11:23;;;;;;;0.08;0.08;;;11.40;99.90;;;;;;5131576;27;20047;-75
2022/10/19 00:13:49;;;;;;;0.00;0.00;;;11.50;99.90;;;;;;5152055;27;20117;-75
2022/10/19 00:16:16;;;;;;;0.20;0.20;;;11.50;99.90;;;;;;5150581;27;20493;-75
2022/10/19 00:18:43;;;;;;;0.10;0.10;;;11.60;99.90;;;;;;5149743;27;20047;-75
2022/10/19 00:21:13;;;;;;;0.10;0.10;;;11.60;99.90;;;;;;5151376;27;20046;-76
2022/10/19 00:23:39;;;;;;;0.00;0.00;;;11.60;99.90;;;;;;5152696;27;20454;-76
2022/10/19 00:26:05;;;;;;;0.10;0.10;;;11.50;99.90;;;;;;5139997;27;20055;-76
2022/10/19 00:28:31;;;;;;;0.00;0.00;;;11.50;99.90;;;;;;5141135;27;20432;-76
2022/10/19 00:31:02;;;;;;;0.10;0.10;;;11.60;99.90;;;;;;5152743;27;20056;-76
2022/10/19 00:33:28;;;;;;;0.38;0.38;;;11.60;99.90;;;;;;5133621;27;20133;-76
2022/10/19 00:35:54;;;;;;;0.20;0.20;;;11.60;99.90;;;;;;5130769;27;20134;-76
2022/10/19 00:38:20;;;;;;;0.10;0.10;;;11.60;99.90;;;;;;5150873;27;20118;-76
2022/10/19 00:40:46;;;;;;;0.10;0.10;;;11.60;99.90;;;;;;5122325;27;20034;-76
2022/10/19 00:43:23;;;;;;;0.10;0.10;;;11.50;99.90;;;;;;5133089;27;20174;-76
2022/10/19 00:45:50;;;;;;;0.10;0.10;;;11.50;99.90;;;;;;5143883;27;20395;-76
2022/10/19 00:48:25;;;;;;;0.00;0.00;;;11.60;99.90;;;;;;5149773;27;20039;-76
2022/10/19 00:50:54;;;;;;;0.10;0.10;;;11.60;99.90;;;;;;5149254;27;20038;-76
2022/10/19 00:53:21;;;;;;;0.10;0.10;;;11.60;99.90;;;;;;5135113;27;20035;-76
2022/10/19 00:55:47;;;;;;;0.20;0.20;;;11.60;99.90;;;;;;5145410;27;20074;-76
2022/10/19 00:58:14;;;;;;;6.30;0.73;;;11.60;99.90;;;;;;5115740;27;20070;-75
2022/10/19 01:00:39;;;;;;;0.10;0.10;;;11.60;99.90;;;;;;5125145;27;20466;-76
2022/10/19 01:03:05;;;;;;;0.47;0.47;;;11.70;99.90;;;;;;5147608;27;20061;-76
2022/10/19 01:05:33;;;;;;;0.00;0.00;;;11.70;99.90;;;;;;5144774;27;20039;-76
2022/10/19 01:07:59;;;;;;;0.03;0.03;;;11.70;99.90;;;;;;5138344;27;20448;-77
2022/10/19 01:10:47;;;;;;;0.28;0.28;;;11.80;99.90;;;;;;5130689;27;20054;-77
2022/10/19 01:13:29;;;;;;;2.20;0.85;;;11.80;99.90;;;;;;5133207;27;20100;-77
2022/10/19 01:16:27;;;;;;;1.08;0.73;;;11.80;99.90;;;;;;5148863;27;20046;-77
2022/10/19 01:19:15;;;;;;;0.10;0.10;;;11.80;99.90;;;;;;5142217;27;20047;-77
2022/10/19 01:21:53;;;;;;;0.00;0.00;;;11.80;99.90;;;;;;5137400;27;20118;-76
2022/10/19 01:24:22;;;;;;;0.10;0.10;;;11.80;99.90;;;;;;5136907;27;20050;-77
2022/10/19 01:27:15;;;;;;;0.05;0.05;;;11.80;99.90;;;;;;5150604;27;20043;-77
2022/10/19 01:30:02;;;;;;;0.10;0.10;;;11.80;99.90;;;;;;5132412;27;20059;-78
2022/10/19 01:32:51;;;;;;;0.10;0.10;;;11.90;99.90;;;;;;5130560;27;20039;-78
2022/10/19 01:35:25;;;;;;;0.10;0.10;;;12.00;99.90;;;;;;5139830;27;20045;-78
2022/10/19 01:38:18;;;;;;;0.08;0.08;;;12.10;99.90;;;;;;5143186;27;20070;-78
2022/10/19 01:41:02;;;;;;;0.10;0.10;;;12.10;99.90;;;;;;5143251;27;20122;-78
2022/10/19 01:44:06;;;;;;;1.15;1.02;;;12.10;99.90;;;;;;5135817;27;20549;-78
2022/10/19 01:46:46;;;;;;;0.00;0.00;;;12.20;99.90;;;;;;5140706;27;20043;-78
2022/10/19 01:49:25;;;;;;;0.00;0.00;;;12.20;99.90;;;;;;5133948;27;20042;-78
2022/10/19 01:51:56;;;;;;;0.08;0.08;;;12.30;99.90;;;;;;5148977;27;20505;-78
2022/10/19 01:54:25;;;;;;;0.10;0.10;;;12.30;99.90;;;;;;5136817;27;20058;-78
2022/10/19 01:56:52;;;;;;;1.05;0.75;;;12.30;99.90;;;;;;5135845;27;20046;-78
2022/10/19 01:59:21;;;;;;;0.10;0.10;;;12.30;99.90;;;;;;5150267;27;20819;-78
2022/10/19 02:01:49;;;;;;;0.08;0.08;;;12.30;99.90;;;;;;5150136;27;20090;-79
2022/10/19 02:04:18;;;;;;;0.10;0.10;;;12.30;99.90;;;;;;5125978;27;20103;-78
2022/10/19 02:06:43;;;;;;;0.52;0.52;;;12.30;99.90;;;;;;5143235;27;20039;-78
2022/10/19 02:09:16;;;;;;;0.08;0.08;;;12.30;99.90;;;;;;5135240;27;20107;-79
2022/10/19 02:11:44;;;;;;;0.05;0.05;;;12.20;99.90;;;;;;5148679;27;20096;-78
2022/10/19 02:14:13;;;;;;;0.32;0.32;;;12.20;99.90;;;;;;5136867;27;20051;-79
2022/10/19 02:16:50;;;;;;;0.22;0.22;;;12.10;99.90;;;;;;5125237;27;20038;-78
2022/10/19 02:19:17;;;;;;;0.10;0.10;;;12.20;99.90;;;;;;5144577;27;20046;-78
2022/10/19 02:21:42;;;;;;;0.17;0.17;;;12.20;99.90;;;;;;5152517;27;20049;-78
2022/10/19 02:24:08;;;;;;;0.10;0.10;;;12.20;99.90;;;;;;5133232;27;20042;-78
2022/10/19 02:26:33;;;;;;;0.10;0.10;;;12.20;99.90;;;;;;5155142;27;20046;-78
2022/10/19 02:28:59;;;;;;;0.10;0.10;;;12.10;99.90;;;;;;5135120;27;20039;-78
2022/10/19 02:31:26;;;;;;;0.10;0.10;;;12.10;99.90;;;;;;5135597;27;20051;-78
2022/10/19 02:33:52;;;;;;;0.10;0.10;;;12.00;99.90;;;;;;5140952;27;20047;-78
2022/10/19 02:36:19;;;;;;;0.05;0.05;;;12.00;99.90;;;;;;5141662;27;20058;-79
2022/10/19 02:38:44;;;;;;;0.15;0.15;;;12.00;99.90;;;;;;5151762;27;20031;-78
2022/10/19 02:41:28;;;;;;;0.10;0.10;;;11.90;99.90;;;;;;5133163;27;20091;-78
2022/10/19 02:44:01;;;;;;;0.10;0.10;;;11.90;99.90;;;;;;5139930;27;20092;-78
2022/10/19 02:46:42;;;;;;;0.10;0.10;;;11.90;99.90;;;;;;5147206;27;20035;-78
2022/10/19 02:49:10;;;;;;;0.10;0.10;;;11.90;99.90;;;;;;5131901;27;20528;-78
2022/10/19 02:52:00;;;;;;;0.55;0.55;;;11.90;99.90;;;;;;5146301;27;20035;-78
2022/10/19 02:54:27;;;;;;;0.20;0.20;;;11.90;99.90;;;;;;5151304;27;20129;-78
2022/10/19 02:56:52;;;;;;;0.10;0.10;;;11.80;99.90;;;;;;5144738;27;20058;-78
2022/10/19 02:59:18;;;;;;;0.10;0.10;;;11.90;99.90;;;;;;5133693;27;20035;-78
2022/10/19 03:01:44;;;;;;;1.17;0.95;;;11.80;99.90;;;;;;5146410;27;20062;-78
2022/10/19 03:04:09;;;;;;;0.25;0.25;;;11.80;99.90;;;;;;5145880;27;20047;-78
2022/10/19 03:06:35;;;;;;;0.03;0.03;;;11.80;99.90;;;;;;5137420;27;20031;-78
2022/10/19 03:09:00;;;;;;;0.10;0.10;;;11.90;99.90;;;;;;5119383;27;20046;-78
2022/10/19 03:11:26;;;;;;;4.47;0.52;;;11.80;99.90;;;;;;5152220;27;20042;-78
2022/10/19 03:13:51;;;;;;;20.30;2.33;;;11.80;99.90;;;;;;5145291;27;20068;-78
2022/10/19 03:16:17;;;;;;;0.10;0.10;;;11.90;99.90;;;;;;5148454;27;20133;-77
2022/10/19 03:18:43;;;;;;;0.10;0.10;;;11.90;99.90;;;;;;5150800;27;20086;-78
2022/10/19 03:21:11;;;;;;;5.68;0.85;;;11.90;99.90;;;;;;5138051;27;20163;-78
2022/10/19 03:23:37;;;;;;;0.10;0.10;;;12.00;99.90;;;;;;5138177;27;20043;-78
2022/10/19 03:26:04;;;;;;;0.10;0.10;;;11.90;99.90;;;;;;5148053;27;20482;-78
2022/10/19 03:28:30;;;;;;;0.10;0.10;;;11.90;99.90;;;;;;5122586;27;20474;-78
2022/10/19 03:30:55;;;;;;;0.20;0.20;;;11.90;99.90;;;;;;5126895;27;20102;-78
2022/10/19 03:33:21;;;;;;;0.10;0.10;;;11.80;99.90;;;;;;5136139;27;20528;-78
2022/10/19 03:35:47;;;;;;;0.00;0.00;;;11.90;99.90;;;;;;5140780;27;20067;-79
2022/10/19 03:38:13;;;;;;;0.10;0.10;;;11.80;99.90;;;;;;5118234;27;20145;-79
2022/10/19 03:40:39;;;;;;;0.10;0.10;;;11.80;99.90;;;;;;5152923;27;20037;-78
2022/10/19 03:43:04;;;;;;;0.10;0.10;;;11.80;99.90;;;;;;5132012;27;20069;-79
2022/10/19 03:45:30;;;;;;;0.10;0.10;;;11.70;99.90;;;;;;5147176;27;20482;-79
2022/10/19 03:47:56;;;;;;;0.10;0.10;;;11.80;99.90;;;;;;5150348;27;20382;-79
2022/10/19 03:50:22;;;;;;;0.10;0.10;;;11.80;99.90;;;;;;5133998;27;20038;-78
2022/10/19 03:52:48;;;;;;;0.10;0.10;;;11.80;99.90;;;;;;5151605;27;20051;-79
2022/10/19 03:55:14;;;;;;;0.00;0.00;;;11.90;99.90;;;;;;5133323;27;20499;-79
2022/10/19 03:57:40;;;;;;;0.10;0.10;;;11.80;99.90;;;;;;5120728;27;20050;-79
2022/10/19 04:00:07;;;;;;;0.20;0.20;;;11.80;99.90;;;;;;5150038;27;20043;-79
2022/10/19 04:02:33;;;;;;;0.10;0.10;;;11.90;99.90;;;;;;5148811;27;20054;-79
2022/10/19 04:04:58;;;;;;;0.30;0.30;;;11.90;99.90;;;;;;5147268;27;20061;-79
2022/10/19 04:07:24;;;;;;;0.50;0.50;;;11.90;99.90;;;;;;5147732;27;20096;-79
2022/10/19 04:09:50;;;;;;;0.00;0.00;;;11.90;99.90;;;;;;5143078;27;20038;-79
2022/10/19 04:12:15;;;;;;;0.00;0.00;;;11.80;99.90;;;;;;5150771;27;20041;-79
2022/10/19 04:14:41;;;;;;;0.10;0.10;;;11.80;99.90;;;;;;5149104;27;20445;-79
2022/10/19 04:17:06;;;;;;;0.10;0.10;;;11.80;99.90;;;;;;5144447;27;20035;-79
2022/10/19 04:19:32;;;;;;;0.03;0.03;;;11.80;99.90;;;;;;5139077;27;20042;-79
2022/10/19 04:21:57;;;;;;;0.20;0.20;;;11.80;99.90;;;;;;5149623;27;20470;-79
2022/10/19 04:24:23;;;;;;;0.00;0.00;;;11.70;99.90;;;;;;5145430;27;20099;-79
2022/10/19 04:26:50;;;;;;;0.10;0.10;;;11.70;99.90;;;;;;5134535;27;20042;-79
2022/10/19 04:29:18;;;;;;;0.40;0.40;;;11.70;99.90;;;;;;5147643;27;20078;-79
2022/10/19 04:31:44;;;;;;;1.10;1.00;;;11.60;99.90;;;;;;5149484;27;20039;-78
2022/10/19 04:34:11;;;;;;;0.10;0.10;;;11.60;99.90;;;;;;5139693;27;20031;-76
2022/10/19 04:36:37;;;;;;;0.03;0.03;;;11.50;99.90;;;;;;5136930;27;20070;-75
2022/10/19 04:39:04;;;;;;;0.10;0.10;;;11.50;99.90;;;;;;5132341;27;20047;-76
2022/10/19 04:41:30;;;;;;;0.10;0.10;;;11.50;99.90;;;;;;5145183;27;20397;-75
2022/10/19 04:43:58;;;;;;;0.10;0.10;;;11.50;99.90;;;;;;5133002;27;20531;-76
2022/10/19 04:46:25;;;;;;;0.10;0.10;;;11.40;99.90;;;;;;5127891;27;20047;-75
2022/10/19 04:48:51;;;;;;;1.20;0.63;;;11.40;99.90;;;;;;5143644;27;20038;-75
2022/10/19 04:51:18;;;;;;;0.75;0.75;;;11.40;99.90;;;;;;5142488;27;20038;-75
2022/10/19 04:53:44;;;;;;;3.75;1.17;;;11.30;99.90;;;;;;5149351;27;20045;-75
2022/10/19 04:56:22;;;;;;;0.10;0.10;;;11.30;99.90;;;;;;5149861;27;20049;-75
2022/10/19 04:58:48;;;;;;;2.28;1.58;;;11.30;99.90;;;;;;5142674;27;20050;-75
2022/10/19 05:01:21;;;;;;;0.00;0.00;;;11.40;99.90;;;;;;5141640;27;20059;-75
2022/10/19 05:03:47;;;;;;;0.05;0.05;;;11.40;99.90;;;;;;5148401;27;20122;-75
2022/10/19 05:06:14;;;;;;;0.10;0.10;;;11.40;99.90;;;;;;5133996;27;20044;-75
2022/10/19 05:08:39;;;;;;;0.10;0.10;;;11.40;99.90;;;;;;5133231;27;20054;-75
2022/10/19 05:11:14;;;;;;;0.00;0.00;;;11.40;99.90;;;;;;5150379;27;20030;-75
2022/10/19 05:13:41;;;;;;;0.10;0.10;;;11.40;99.90;;;;;;5141373;27;20073;-75
2022/10/19 05:16:13;;;;;;;0.10;0.10;;;11.40;99.90;;;;;;5146304;27;20045;-75
2022/10/19 05:18:39;;;;;;;0.17;0.17;;;11.40;99.90;;;;;;5149961;27;20063;-75
2022/10/19 05:21:14;;;;;;;0.10;0.10;;;11.40;99.90;;;;;;5149189;27;20096;-75
2022/10/19 05:23:41;;;;;;;0.20;0.20;;;11.50;99.90;;;;;;5134833;27;20051;-75
2022/10/19 05:26:12;;;;;;;0.10;0.10;;;11.40;99.90;;;;;;5135281;27;20043;-75
2022/10/19 05:28:38;;;;;;;0.38;0.38;;;11.50;99.90;;;;;;5134401;27;20122;-75
2022/10/19 05:31:08;;;;;;;0.73;0.73;;;11.50;99.90;;;;;;5127396;27;20134;-74
2022/10/19 05:33:33;;;;;;;0.00;0.00;;;11.50;99.90;;;;;;5133496;27;20484;-74
2022/10/19 05:36:07;;;;;;;0.10;0.10;;;11.50;99.90;;;;;;5147602;27;20051;-74
2022/10/19 05:38:33;;;;;;;3.70;0.55;;;11.50;99.90;;;;;;5148993;27;20039;-74
2022/10/19 05:40:58;;;;;;;0.10;0.10;;;11.50;99.90;;;;;;5145437;27;20402;-74
2022/10/19 05:43:24;;;;;;;0.88;0.57;;;11.50;99.90;;;;;;5144284;27;20467;-74
2022/10/19 05:45:50;;;;;;;0.10;0.10;;;11.50;99.90;;;;;;5143441;27;20490;-74
2022/10/19 05:48:15;;;;;;;0.10;0.10;;;11.50;99.90;;;;;;5154451;27;20431;-74
2022/10/19 05:50:53;;;;;;;0.10;0.10;;;11.50;99.90;;;;;;5154564;27;20435;-74
2022/10/19 05:53:19;;;;;;;0.13;0.13;;;11.50;99.90;;;;;;5132912;27;20043;-74
2022/10/19 05:55:45;;;;;;;0.10;0.10;;;11.50;99.90;;;;;;5142065;27;20088;-74
2022/10/19 05:58:11;;;;;;;0.10;0.10;;;11.50;99.90;;;;;;5139781;27;20031;-74
2022/10/19 06:00:36;;;;;;;0.95;0.73;;;11.50;99.90;;;;;;5149265;27;20054;-74
2022/10/19 06:03:02;;;;;;;0.00;0.00;;;11.60;99.90;;;;;;5134427;27;20128;-74
2022/10/19 06:05:27;;;;;;;0.13;0.13;;;11.60;99.90;;;;;;5151489;27;20038;-74
2022/10/19 06:07:53;;;;;;;0.10;0.10;;;11.60;99.90;;;;;;5154829;27;20042;-74
2022/10/19 06:10:20;;;;;;;0.10;0.10;;;11.50;99.90;;;;;;5133144;27;20047;-74
2022/10/19 06:12:45;;;;;;;0.10;0.10;;;11.60;99.90;;;;;;5138606;27;20065;-74
2022/10/19 06:15:11;;;;;;;0.10;0.10;;;11.60;99.90;;;;;;5150902;27;20482;-74
2022/10/19 06:17:37;;;;;;;0.57;0.55;;;11.60;99.90;;;;;;5135497;27;20042;-74
2022/10/19 06:20:03;;;;;;;0.10;0.10;;;11.50;99.90;;;;;;5153001;27;20043;-72
2022/10/19 06:22:29;;;;;;;0.30;0.30;;;11.50;99.90;;;;;;5142643;27;20043;-74
2022/10/19 06:24:55;;;;;;;0.10;0.10;;;11.60;99.90;;;;;;5122479;27;20056;-75
2022/10/19 06:27:21;;;;;;;0.13;0.13;;;11.50;99.90;;;;;;5153779;27;20499;-75
2022/10/19 06:29:47;;;;;;;0.10;0.10;;;11.50;99.90;;;;;;5134328;27;20067;-74
2022/10/19 06:32:12;;;;;;;0.10;0.10;;;11.50;99.90;;;;;;5128482;27;20118;-74
2022/10/19 06:34:38;;;;;;;0.20;0.20;;;11.60;99.90;;;;;;5141054;27;20081;-74
2022/10/19 06:37:04;;;;;;;0.10;0.10;;;11.60;99.90;;;;;;5152961;27;20035;-74
2022/10/19 06:39:29;;;;;;;0.10;0.10;;;11.60;99.90;;;;;;5151339;27;20047;-74
2022/10/19 06:41:55;;;;;;;0.00;0.00;;;11.60;99.90;;;;;;5125299;27;20038;-74
2022/10/19 06:44:21;;;;;;;0.20;0.20;;;11.60;99.90;;;;;;5151752;27;20051;-74
2022/10/19 06:46:47;;;;;;;1.05;1.05;;;11.60;99.90;;;;;;5148361;27;20095;-74
2022/10/19 06:49:13;;;;;;;1.70;1.40;;;11.60;99.90;;;;;;5148162;27;20042;-74
2022/10/19 06:51:39;;;;;;;0.10;0.10;;;11.70;99.90;;;;;;5135605;27;20042;-74
2022/10/19 06:54:05;;;;;;;0.10;0.10;;;11.70;99.90;;;;;;5154057;27;20038;-74
2022/10/19 06:56:31;;;;;;;0.10;0.10;;;11.70;99.90;;;;;;5147508;27;20047;-74
2022/10/19 06:58:57;;;;;;;0.30;0.30;;;11.70;99.90;;;;;;5141187;27;20066;-74
2022/10/19 07:01:23;;;;;;;0.10;0.10;;;11.70;99.90;;;;;;5131133;27;20104;-73
2022/10/19 07:03:52;;;;;;;1.75;1.48;;;11.80;99.90;;;;;;5133485;27;20117;-74
2022/10/19 07:06:18;;;;;;;0.30;0.28;;;11.80;99.90;;;;;;5150224;27;20434;-74
2022/10/19 07:08:44;;;;;;;0.00;0.00;;;11.80;99.90;;;;;;5149550;27;20072;-74
2022/10/19 07:11:13;;;;;;;0.10;0.10;;;11.80;99.90;;;;;;5130701;27;20126;-74
2022/10/19 07:13:39;;;;;;;0.00;0.00;;;11.80;99.90;;;;;;5131381;27;20475;-74
2022/10/19 07:16:10;;;;;;;0.05;0.05;;;11.80;99.90;;;;;;5143561;27;20035;-74
2022/10/19 07:18:38;;;;;;;0.10;0.10;;;11.90;99.90;;;;;;5132481;27;20084;-74
2022/10/19 07:21:07;;;;;;;0.10;0.10;;;11.90;99.90;;;;;;5133951;27;20038;-74
2022/10/19 07:23:34;;;;;;;0.00;0.00;;;11.90;99.90;;;;;;5151454;27;20054;-74
2022/10/19 07:26:12;;;;;;;0.10;0.10;;;12.00;99.90;;;;;;5121396;27;20372;-74
2022/10/19 07:28:42;;;;;;;0.10;0.10;;;12.00;99.90;;;;;;5141549;27;20035;-74
2022/10/19 07:31:10;;;;;;;0.00;0.00;;;12.10;99.90;;;;;;5139680;27;20082;-74
2022/10/19 07:33:36;;;;;;;0.00;0.00;;;12.10;99.90;;;;;;5138564;27;20130;-74
2022/10/19 07:36:03;;;;;;;0.10;0.10;;;12.10;99.90;;;;;;5130796;27;20118;-74
2022/10/19 07:38:30;;;;;;;0.00;0.00;;;12.10;99.90;;;;;;5115899;27;20075;-74
2022/10/19 07:41:00;;;;;;;3.63;1.30;;;12.10;99.90;;;;;;5139808;27;20035;-74
2022/10/19 07:43:25;;;;;;;0.20;0.20;;;12.10;99.90;;;;;;5111807;27;20047;-74
2022/10/19 07:46:03;;;;;;;0.10;0.10;;;12.20;99.90;;;;;;5130935;27;20493;-75
2022/10/19 07:48:29;;;;;;;0.10;0.10;;;12.30;99.90;;;;;;5138855;27;20031;-75
2022/10/19 07:50:55;;;;;;;0.08;0.08;;;12.30;99.90;;;;;;5150801;27;20035;-74
2022/10/19 07:53:21;;;;;;;0.10;0.10;;;12.30;99.90;;;;;;5149886;27;20099;-75
2022/10/19 07:55:47;;;;;;;0.10;0.10;;;12.40;99.90;;;;;;5151138;27;20043;-75
2022/10/19 07:58:12;;;;;;;0.10;0.10;;;12.40;99.90;;;;;;5147528;27;20482;-74
2022/10/19 08:00:39;;;;;;;0.00;0.00;;;12.50;99.90;;;;;;5135799;27;20562;-75
2022/10/19 08:03:04;;;;;;;0.10;0.10;;;12.50;99.90;;;;;;5129685;27;20088;-75
2022/10/19 08:05:32;;;;;;;0.10;0.10;;;12.60;99.90;;;;;;5111087;27;20047;-75
2022/10/19 08:07:57;;;;;;;0.00;0.00;;;12.60;99.90;;;;;;5132833;27;20624;-75
2022/10/19 08:10:23;;;;;;;0.10;0.10;;;12.60;99.90;;;;;;5132438;27;20134;-75
2022/10/19 08:12:48;;;;;;;0.03;0.03;;;12.70;99.90;;;;;;5133909;27;20039;-75
2022/10/19 08:15:14;;;;;;;0.10;0.10;;;12.70;99.90;;;;;;5147846;27;20043;-75
2022/10/19 08:17:40;;;;;;;1.75;1.17;;;12.70;99.90;;;;;;5136723;27;20086;-75
2022/10/19 08:20:07;;;;;;;0.10;0.10;;;12.70;99.90;;;;;;5140880;27;20077;-75
2022/10/19 08:22:33;;;;;;;0.17;0.17;;;12.80;99.90;;;;;;5144891;27;20039;-75
2022/10/19 08:24:58;;;;;;;0.35;0.35;;;12.80;99.90;;;;;;5143122;27;20482;-75
2022/10/19 08:27:24;;;;;;;0.10;0.10;;;12.80;99.90;;;;;;5146563;27;20042;-75
2022/10/19 08:29:50;;;;;;;5.05;0.17;;;12.90;99.90;;;;;;5139753;27;20051;-75
2022/10/19 08:32:17;;;;;;;0.10;0.10;;;12.90;99.90;;;;;;5137142;27;20095;-75
2022/10/19 08:34:43;;;;;;;0.10;0.10;;;13.00;99.90;;;;;;5127752;27;20053;-75
2022/10/19 08:37:08;;;;;;;0.10;0.10;;;13.00;99.90;;;;;;5149630;27;20473;-75
2022/10/19 08:39:34;;;;;;;4.13;0.38;;;13.00;99.90;;;;;;5140293;27;20031;-75
2022/10/19 08:42:03;;;;;;;0.30;0.30;;;13.00;99.90;;;;;;5117300;27;20046;-75
2022/10/19 08:44:56;;;;;;;0.10;0.10;;;13.10;99.90;;;;;;5126184;27;20058;-75
2022/10/19 08:47:48;;;;;;;0.00;0.00;;;13.00;99.90;;;;;;5142358;27;20050;-75
2022/10/19 08:50:15;;;;;;;0.10;0.10;;;13.20;99.90;;;;;;5131258;27;20510;-75
2022/10/19 08:52:44;;;;;;;0.55;0.55;;;13.20;99.90;;;;;;5139983;27;20066;-75
2022/10/19 08:55:13;;;;;;;0.10;0.10;;;13.30;99.90;;;;;;5132764;27;20542;-75
2022/10/19 08:57:45;;;;;;;0.03;0.03;;;13.30;99.90;;;;;;5128553;27;20474;-75
2022/10/19 09:00:21;;;;;;;0.00;0.00;;;13.40;99.90;;;;;;5133086;27;20092;-75
2022/10/19 09:02:56;;;;;;;0.00;0.00;;;13.40;99.90;;;;;;5130064;27;20076;-72
2022/10/19 09:05:42;;;;;;;0.10;0.10;;;13.30;99.90;;;;;;5138289;27;20131;-72
2022/10/19 09:08:10;;;;;;;0.10;0.10;;;13.30;99.90;;;;;;5143501;27;20096;-74
2022/10/19 09:10:39;;;;;;;0.10;0.10;;;13.30;99.90;;;;;;5143651;27;20050;-73
2022/10/19 09:13:39;;;;;;;0.22;0.22;;;13.30;99.90;;;;;;5118917;27;20478;-74
2022/10/19 09:16:05;;;;;;;0.10;0.10;;;13.30;99.90;;;;;;5134940;27;20039;-74
2022/10/19 09:18:33;;;;;;;0.13;0.10;;;13.30;99.90;;;;;;5149050;27;20043;-75
2022/10/19 09:21:13;;;;;;;0.00;0.00;;;13.30;99.90;;;;;;5137981;27;21116;-74
2022/10/19 09:23:57;;;;;;;0.25;0.17;;;13.30;99.90;;;;;;5132632;27;20436;-74
2022/10/19 09:26:31;;;;;;;0.00;0.00;;;13.30;99.90;;;;;;5142043;27;20050;-74
2022/10/19 09:29:05;;;;;;;0.28;0.28;;;13.30;99.90;;;;;;5118432;27;20089;-74
2022/10/19 09:31:33;;;;;;;0.00;0.00;;;13.30;99.90;;;;;;5155949;27;20051;-74
2022/10/19 09:34:04;;;;;;;0.10;0.10;;;13.40;99.90;;;;;;5124850;27;20043;-75
2022/10/19 09:36:38;;;;;;;0.10;0.10;;;13.40;99.90;;;;;;5149704;27;20111;-74
2022/10/19 09:39:04;;;;;;;0.10;0.10;;;13.50;99.90;;;;;;5131320;27;20050;-74
2022/10/19 09:41:31;;;;;;;0.00;0.00;;;13.40;99.90;;;;;;5128325;27;20054;-74
2022/10/19 09:43:58;;;;;;;0.10;0.10;;;13.30;99.90;;;;;;5143882;27;20085;-74
2022/10/19 09:46:33;;;;;;;0.47;0.47;;;13.40;99.90;;;;;;5155010;27;20047;-74
2022/10/19 09:49:00;;;;;;;0.10;0.10;;;13.40;99.90;;;;;;5146625;27;20038;-74
2022/10/19 09:51:37;;;;;;;0.63;0.63;;;13.40;99.90;;;;;;5153498;27;20055;-74
2022/10/19 09:54:03;;;;;;;0.03;0.03;;;13.50;99.90;;;;;;5146126;27;20146;-74
2022/10/19 09:56:28;;;;;;;0.08;0.08;;;13.50;99.90;;;;;;5149599;27;20452;-74
2022/10/19 09:58:56;;;;;;;0.10;0.10;;;13.60;99.90;;;;;;5137191;27;20043;-74
2022/10/19 10:01:32;;;;;;;0.00;0.00;;;13.60;99.90;;;;;;5130722;27;20126;-74
2022/10/19 10:04:16;;;;;;;2.80;1.17;;;13.60;99.90;;;;;;5152756;27;20126;-75
2022/10/19 10:06:45;;;;;;;0.00;0.00;;;13.60;99.90;;;;;;5140244;27;20126;-75
2022/10/19 10:09:22;;;;;;;0.00;0.00;;;13.70;99.90;;;;;;5139079;27;20494;-74
2022/10/19 10:11:49;;;;;;;0.00;0.00;;;13.60;99.90;;;;;;5145897;27;20146;-74
2022/10/19 10:14:19;;;;;;;0.10;0.10;;;13.70;99.90;;;;;;5144849;27;20042;-74
2022/10/19 10:16:45;;;;;;;0.10;0.10;;;13.70;99.90;;;;;;5140235;27;20038;-74
2022/10/19 10:19:13;;;;;;;0.00;0.00;;;13.70;99.90;;;;;;5153030;27;20347;-75
2022/10/19 10:21:56;;;;;;;0.10;0.10;;;13.70;99.90;;;;;;5145798;27;20491;-74
2022/10/19 10:24:32;;;;;;;0.10;0.10;;;13.70;99.90;;;;;;5137060;27;20043;-75
2022/10/19 10:27:01;;;;;;;0.10;0.10;;;13.70;99.90;;;;;;5134525;27;20051;-75
2022/10/19 10:29:31;;;;;;;0.10;0.10;;;13.70;99.90;;;;;;5153079;27;20545;-75
2022/10/19 10:32:15;;;;;;;0.00;0.00;;;13.80;99.90;;;;;;5155121;27;20084;-74
2022/10/19 10:34:46;;;;;;;0.05;0.05;;;13.80;99.90;;;;;;5133865;27;20452;-75
2022/10/19 10:37:20;;;;;;;0.25;0.17;;;13.90;99.90;;;;;;5153242;27;20068;-75
2022/10/19 10:39:54;;;;;;;0.10;0.10;;;13.90;99.90;;;;;;5154320;27;20057;-75
2022/10/19 10:42:28;;;;;;;0.20;0.20;;;14.00;99.90;;;;;;5148620;27;20048;-74
2022/10/19 10:44:58;;;;;;;0.05;0.05;;;14.10;99.90;;;;;;5133823;27;20055;-74
2022/10/19 10:47:26;;;;;;;0.20;0.20;;;14.10;99.90;;;;;;5150716;27;20042;-75
2022/10/19 10:50:04;;;;;;;0.10;0.10;;;14.10;99.90;;;;;;5136946;27;20050;-74
2022/10/19 10:52:30;;;;;;;0.00;0.00;;;14.10;99.90;;;;;;5121917;27;20066;-74
2022/10/19 10:55:02;;;;;;;0.10;0.10;;;14.20;99.90;;;;;;5123227;27;20107;-75
2022/10/19 10:57:36;;;;;;;0.08;0.08;;;14.30;99.90;;;;;;5143969;27;20600;-74
2022/10/19 11:00:19;;;;;;;0.10;0.10;;;14.20;99.90;;;;;;5138658;27;20518;-74
2022/10/19 11:03:09;;;;;;;0.10;0.10;;;14.10;99.90;;;;;;5140478;27;20055;-75
2022/10/19 11:05:44;;;;;;;0.10;0.10;;;14.10;99.90;;;;;;5126874;27;20094;-74
2022/10/19 11:08:33;;;;;;;0.30;0.30;;;14.20;99.90;;;;;;5140996;27;20114;-75
2022/10/19 11:11:05;;;;;;;0.10;0.10;;;14.20;99.90;;;;;;5139671;27;20047;-75
2022/10/19 11:13:52;;;;;;;0.10;0.10;;;14.10;99.90;;;;;;5137571;27;20073;-74
2022/10/19 11:16:23;;;;;;;0.10;0.10;;;14.10;99.90;;;;;;5117623;27;20039;-75
2022/10/19 11:19:07;;;;;;;8.05;0.95;;;14.20;99.90;;;;;;5134798;27;20497;-75
2022/10/19 11:22:06;;;;;;;0.10;0.10;;;14.20;99.90;;;;;;5128743;27;20494;-75
2022/10/19 11:25:00;;;;;;;0.00;0.00;;;14.20;99.90;;;;;;5138448;27;20042;-74
2022/10/19 11:27:54;;;;;;;4.20;1.58;;;14.20;99.90;;;;;;5141170;27;20046;-75
2022/10/19 11:30:24;;;;;;;0.10;0.10;;;14.30;99.90;;;;;;5133276;27;20146;-75
2022/10/19 11:33:00;;;;;;;0.10;0.10;;;14.40;99.90;;;;;;5151905;27;20050;-75
2022/10/19 11:35:31;;;;;;;0.08;0.08;;;14.50;99.90;;;;;;5150506;27;20051;-75
2022/10/19 11:38:48;;;;;;;0.10;0.10;;;14.60;99.90;;;;;;5131606;27;20053;-75
2022/10/19 11:41:42;;;;;;;0.10;0.10;;;14.40;99.90;;;;;;5045489;28;20052;-75
2022/10/19 11:44:31;;;;;;;0.10;0.10;;;14.50;99.90;;;;;;5143717;27;20483;-75
2022/10/19 11:47:10;;;;;;;0.10;0.10;;;14.50;99.90;;;;;;5136051;27;20117;-75
2022/10/19 11:49:54;;;;;;;0.00;0.00;;;14.70;99.90;;;;;;5132529;27;20382;-75
2022/10/19 11:52:59;;;;;;;0.00;0.00;;;15.00;99.90;;;;;;5132590;27;20043;-75
2022/10/19 11:55:53;;;;;;;0.10;0.10;;;15.60;99.90;;;;;;5117990;27;20054;-75
2022/10/19 11:58:49;;;;;;;0.10;0.10;;;16.20;99.90;;;;;;5128632;27;20051;-75
2022/10/19 12:01:50;;;;;;;0.10;0.10;;;16.70;99.90;;;;;;5138122;27;20046;-75
2022/10/19 12:04:47;;;;;;;1.75;0.65;;;17.00;99.90;;;;;;5150740;27;20046;-74
2022/10/19 12:07:49;;;;;;;15.02;1.48;;;16.40;99.90;;;;;;5121690;27;20046;-74
2022/10/19 12:10:26;;;;;;;0.00;0.00;;;16.10;99.90;;;;;;5152003;27;20547;-74
2022/10/19 12:12:57;;;;;;;0.35;0.35;;;16.00;99.90;;;;;;5150054;27;20043;-75
2022/10/19 12:15:31;;;;;;;0.20;0.20;;;15.80;99.90;;;;;;5150931;27;20062;-75
2022/10/19 12:18:14;;;;;;;0.10;0.10;;;16.60;99.90;;;;;;5132044;27;20099;-73
2022/10/19 12:20:50;;;;;;;0.00;0.00;;;16.90;99.90;;;;;;5117548;27;20046;-74
2022/10/19 12:23:16;;;;;;;0.25;0.25;;;16.70;99.90;;;;;;5113399;27;20053;-74
2022/10/19 12:25:43;;;;;;;0.10;0.10;;;17.10;99.90;;;;;;5136636;27;20125;-75
2022/10/19 12:28:43;;;;;;;0.10;0.10;;;16.80;99.90;;;;;;5147355;27;20041;-75
2022/10/19 12:31:10;;;;;;;0.10;0.10;;;16.70;99.90;;;;;;5097852;27;20051;-75
2022/10/19 12:33:37;;;;;;;0.00;0.00;;;16.30;99.90;;;;;;5144818;27;20035;-75
2022/10/19 12:36:17;;;;;;;0.10;0.10;;;16.80;99.90;;;;;;5147542;27;20043;-75
2022/10/19 12:38:51;;;;;;;0.52;0.25;;;17.50;99.90;;;;;;5149713;27;20046;-74
2022/10/19 12:41:43;;;;;;;0.50;0.50;;;17.60;99.90;;;;;;5129898;27;20389;-75
2022/10/19 12:44:46;;;;;;;0.10;0.10;;;17.30;99.90;;;;;;5150706;27;20050;-75
2022/10/19 12:47:19;;;;;;;0.10;0.10;;;17.40;99.90;;;;;;5145765;27;20039;-75
2022/10/19 12:49:56;;;;;;;0.20;0.20;;;17.50;99.90;;;;;;5131649;27;20039;-75
2022/10/19 12:52:38;;;;;;;1.08;0.47;;;17.20;99.90;;;;;;5143364;27;20072;-74
2022/10/19 12:55:16;;;;;;;0.00;0.00;;;17.00;99.90;;;;;;5131605;27;20046;-74
2022/10/19 12:57:47;;;;;;;0.60;0.32;;;16.80;99.90;;;;;;5152090;27;20642;-74
2022/10/19 13:00:23;;;;;;;0.00;0.00;;;16.60;99.90;;;;;;5131425;27;20056;-75
2022/10/19 13:03:20;;;;;;;2.17;0.85;;;16.40;99.90;;;;;;5143682;27;20058;-75
2022/10/19 13:06:00;;;;;;;0.10;0.10;;;16.70;99.90;;;;;;5130044;27;20057;-75
2022/10/19 13:08:30;;;;;;;0.75;0.63;;;16.30;99.90;;;;;;5129378;27;20051;-74
2022/10/19 13:11:05;;;;;;;0.00;0.00;;;16.30;99.90;;;;;;5119683;27;20050;-75